Harrisburg, Illinois
Current Conditions -  °F | °C
As of 1:55 PM on Monday 24 Nov 2014 (Local Time) from KHSB Reporting Station
Broken Clouds Broken Clouds  
Wind Chill: 44°   Ceiling: 5000
Heat Index: 48°   Visibility: 10mi
Dew Point: 35°   Wind: 9mph
Humidity: 60%   Direction: 260°W
Pressure: 29.76"   Gusts: NA
Location:  37.74°N, 88.54°W
Report Text: KHSB 241955Z AUTO 26008KT 10SM BKN050 09/01 A2976 RMK AO2 T00880014
Loading
Personal Weather Stations






























Interactive Weather Map New forecast layout! Learn more

10-Day Weather Forecast

Advertisements
Track Severe Weather on mobile